Погода Маэватананана 2 недели

Антананариву, Мадагаскар

23 июля-04 августа
  • 23июля
    Сегодня
    +18°
    +34°
    Ясно и безоблачно
    ВремяПогодаТемператураВлажностьДавлениеВетер, м/сВероятность осадков
    00:00Небольшая облачность+19°C64 %757 мм1.9 м/с5 %
    03:00Практически безоблачно+18°C75 %757 мм1.5 м/с5 %
    06:00Ясно и безоблачно+17°C86 %757 мм1.4 м/с5 %
    09:00Ясно и безоблачно+26°C57 %758 мм1.3 м/с5 %
    12:00Ясно и безоблачно+32°C38 %757 мм0.8 м/с5 %
    15:00Ясно и безоблачно+34°C28 %755 мм1.0 м/с5 %
    18:00Ясно и безоблачно+26°C40 %755 мм1.5 м/с5 %
    21:00Практически безоблачно+23°C48 %756 мм1.7 м/с5 %
  • 24июля
    Среда
    +18°
    +34°
    Ясно и безоблачно
    ВремяПогодаТемператураВлажностьДавлениеВетер, м/сВероятность осадков
    00:00Пасмурно, сплошная облачность+22°C51 %757 мм1.9 м/с5 %
    03:00Небольшая облачность+20°C65 %756 мм2.1 м/с5 %
    06:00Практически безоблачно+19°C72 %756 мм2.0 м/с5 %
    09:00Практически безоблачно+26°C52 %758 мм1.4 м/с5 %
    12:00Небольшая облачность+32°C34 %756 мм1.3 м/с5 %
    15:00Ясно и безоблачно+34°C29 %754 мм1.0 м/с5 %
    18:00Ясно и безоблачно+27°C37 %754 мм1.6 м/с5 %
    21:00Небольшая облачность+23°C45 %754 мм2.0 м/с5 %
  • 25июля
    Четверг
    +18°
    +34°
    Ясно и безоблачно
    ВремяПогодаТемператураВлажностьДавлениеВетер, м/сВероятность осадков
    00:00Практически безоблачно+22°C53 %756 мм2.6 м/с5 %
    03:00Ясно и безоблачно+19°C67 %754 мм1.8 м/с5 %
    06:00Ясно и безоблачно+19°C80 %754 мм0.8 м/с5 %
    09:00Ясно и безоблачно+26°C55 %756 мм1.9 м/с5 %
    12:00Ясно и безоблачно+32°C35 %754 мм2.3 м/с5 %
    15:00Ясно и безоблачно+34°C29 %752 мм1.4 м/с5 %
    18:00Ясно и безоблачно+27°C40 %753 мм0.4 м/с5 %
    21:00Ясно и безоблачно+24°C46 %753 мм1.6 м/с5 %
  • 26июля
    Пятница
    +18°
    +35°
    Ясно и безоблачно
    ВремяПогодаТемператураВлажностьДавлениеВетер, м/сВероятность осадков
    00:00Ясно и безоблачно+21°C64 %753 мм1.9 м/с5 %
    03:00Ясно и безоблачно+19°C79 %753 мм1.5 м/с5 %
    06:00Ясно и безоблачно+19°C81 %754 мм1.7 м/с5 %
    09:00Ясно и безоблачно+28°C54 %755 мм0.9 м/с5 %
    12:00Ясно и безоблачно+33°C31 %753 мм0.6 м/с5 %
    15:00Ясно и безоблачно+34°C27 %751 мм1.9 м/с5 %
    18:00Ясно и безоблачно+28°C35 %752 мм2.0 м/с5 %
    21:00Ясно и безоблачно+23°C44 %753 мм2.5 м/с5 %
Мы используем cookies
Соглашаюсь